Language selection

My Weather Profile Weather Topics  | 

Hudson - Hudson Bay: Past 24 Hour Conditions

 

Moosonee Airport

04:00 PM EST 23 January 2022
Disclaimer

This table is a summary of hourly weather conditions for the past 24 hours.
Please note that these observations might not always be representative of weather conditions over their associated marine area.

Date / Time
(EST)
Wind(knots) Conditions Visibility(km) Pressure(kPa) Air tempC) Relative humidity(%) Dew pointC) Wind Chill
23 January 2022
16:00 WSW 9 Haze 3 100.8 -24 70 -28 -34
15:00 WSW 13 gust 20 Cloudy 11 100.8 -23 61 -29 -36
14:00 WSW 16 gust 21 Haze 10 100.8 -23 60 -28 -36
13:00 WSW 14 gust 20 Cloudy 11 100.8 -23 65 -28 -36
12:00 W 10 gust 16 Sunny 16 100.9 -25 65 -29 -36
11:00 WSW 9 Sunny 16 101.0 -26 70 -30 -37
10:00 WSW 6 Sunny 16 101.1 -28 73 -32 -38
9:00 WSW 9 Sunny 16 101.1 -30 74 -34 -43
8:00 WSW 7 Clear 16 101.1 -31 74 -34 -41
7:00 WSW 7 Clear 16 101.1 -31 74 -34 -42
6:00 WSW 7 Clear 16 101.1 -31 74 -34 -41
5:00 W 6 Clear 16 101.1 -30 74 -33 -40
4:00 WSW 8 Clear 16 101.1 -30 75 -33 -41
3:00 WSW 6 Clear 16 101.1 -29 75 -32 -39
2:00 WSW 6 Clear 16 101.1 -28 74 -32 -38
1:00 WSW 6 Clear 16 101.1 -27 76 -30 -36
0:00 W 7 Clear 16 101.2 -26 72 -29 -35
22 January 2022
23:00 WNW 8 gust 16 Partly Cloudy 16 101.2 -24 70 -28 -34
22:00 NW 12 gust 18 Light Snow 6 101.1 -22 71 -26 -34
21:00 WNW 11 gust 17 Light Snow 4 101.1 -21 75 -25 -32
20:00 WNW 12 Light Snow 5 101.1 -21 76 -24 -32
19:00 WNW 9 gust 15 Light Snow 5 101.0 -20 74 -24 -30
18:00 NW 11 gust 17 Light Snow 6 101.0 -20 74 -23 -30
17:00 NW 8 Light Snow 6 100.9 -19 75 -22 -28
16:00 NW 11 Light Snow 5 100.9 -18 72 -22 -28

Zoom-in to make a selection

Map of Hudson - Hudson Bay marine weather areas Arviat Airport Baker Lake Airport Chesterfield Inlet Airport Coral Harbour Airport Rankin Inlet Airport Sanikiluaq Airport Whale Cove Airport Kinngait (Cape Dorset Airport) Iqaluit Airport Wager Bay Kimmirut Airport Churchill Airport Fort Severn Airport Peawanuck Airport Moosonee Airport Eastmain Airport La Grande Rivière Airport Waskaganish Airport Wemindji Airport Akulivik Airport Inukjuak Airport Ivujivik Airport Kuujjuarapik Airport Puvirnituq Airport Umiujaq Airport Aupaluk Airport Kangiqsujuaq Airport Kangirsuk Airport Kangiqsualujjuaq Airport Kuujjuaq Airport Quaqtaq Airport Salluit Airport Tasiujaq Airport Cape Kakkiviak
Legend:
buoy Buoy
land station Land Station

Hudson - Hudson Bay Area

Another Region

What we are doing

Features

Hello Weather

Hello Weather: our upgraded telephone weather service is here. 1-833-794-3556 or 1-833-79HELLO.

Date modified: